sensor_id;sensor_type;location;lat;lon;timestamp;P1;durP1;ratioP1;P2;durP2;ratioP2
7181;SDS011;3632;42.724;23.298;2023-02-23T00:00:23;50.63;;;28.73;;
7181;SDS011;3632;42.724;23.298;2023-02-23T00:02:53;46.80;;;27.50;;
7181;SDS011;3632;42.724;23.298;2023-02-23T00:05:23;43.43;;;25.57;;
7181;SDS011;3632;42.724;23.298;2023-02-23T00:07:50;44.07;;;26.53;;
7181;SDS011;3632;42.724;23.298;2023-02-23T00:10:17;46.00;;;26.30;;
7181;SDS011;3632;42.724;23.298;2023-02-23T00:12:47;46.87;;;25.07;;
7181;SDS011;3632;42.724;23.298;2023-02-23T00:15:14;43.30;;;25.77;;
7181;SDS011;3632;42.724;23.298;2023-02-23T00:17:41;47.60;;;26.60;;
7181;SDS011;3632;42.724;23.298;2023-02-23T00:20:12;45.77;;;25.50;;
7181;SDS011;3632;42.724;23.298;2023-02-23T00:22:41;64.47;;;31.30;;
7181;SDS011;3632;42.724;23.298;2023-02-23T00:25:08;86.80;;;39.07;;
7181;SDS011;3632;42.724;23.298;2023-02-23T00:27:36;68.00;;;34.23;;
7181;SDS011;3632;42.724;23.298;2023-02-23T00:30:11;65.30;;;32.83;;
7181;SDS011;3632;42.724;23.298;2023-02-23T00:32:38;68.17;;;33.37;;
7181;SDS011;3632;42.724;23.298;2023-02-23T00:35:06;70.30;;;35.37;;
7181;SDS011;3632;42.724;23.298;2023-02-23T00:37:41;75.93;;;35.87;;
7181;SDS011;3632;42.724;23.298;2023-02-23T00:40:08;114.53;;;49.07;;
7181;SDS011;3632;42.724;23.298;2023-02-23T00:42:40;104.67;;;47.33;;
7181;SDS011;3632;42.724;23.298;2023-02-23T00:45:07;107.43;;;49.53;;
7181;SDS011;3632;42.724;23.298;2023-02-23T00:47:37;101.80;;;45.90;;
7181;SDS011;3632;42.724;23.298;2023-02-23T00:50:06;70.00;;;35.73;;
7181;SDS011;3632;42.724;23.298;2023-02-23T00:52:37;57.57;;;31.97;;
7181;SDS011;3632;42.724;23.298;2023-02-23T00:55:05;40.33;;;22.07;;
7181;SDS011;3632;42.724;23.298;2023-02-23T00:57:33;51.03;;;27.43;;
7181;SDS011;3632;42.724;23.298;2023-02-23T01:00:01;47.63;;;26.33;;
7181;SDS011;3632;42.724;23.298;2023-02-23T01:02:39;53.90;;;28.33;;
7181;SDS011;3632;42.724;23.298;2023-02-23T01:05:08;64.27;;;31.87;;
7181;SDS011;3632;42.724;23.298;2023-02-23T01:07:36;50.67;;;26.63;;
7181;SDS011;3632;42.724;23.298;2023-02-23T01:10:04;41.17;;;23.67;;
7181;SDS011;3632;42.724;23.298;2023-02-23T01:12:43;25.87;;;16.63;;
7181;SDS011;3632;42.724;23.298;2023-02-23T01:15:11;30.17;;;18.97;;
7181;SDS011;3632;42.724;23.298;2023-02-23T01:17:40;28.00;;;16.07;;
7181;SDS011;3632;42.724;23.298;2023-02-23T01:20:08;29.30;;;16.80;;
7181;SDS011;3632;42.724;23.298;2023-02-23T01:22:40;55.73;;;30.23;;
7181;SDS011;3632;42.724;23.298;2023-02-23T01:25:08;44.47;;;25.07;;
7181;SDS011;3632;42.724;23.298;2023-02-23T01:27:36;42.43;;;24.63;;
7181;SDS011;3632;42.724;23.298;2023-02-23T01:30:04;60.17;;;32.07;;
7181;SDS011;3632;42.724;23.298;2023-02-23T01:32:33;51.97;;;29.13;;
7181;SDS011;3632;42.724;23.298;2023-02-23T01:35:03;29.20;;;18.17;;
7181;SDS011;3632;42.724;23.298;2023-02-23T01:37:32;35.23;;;19.90;;
7181;SDS011;3632;42.724;23.298;2023-02-23T01:40:00;26.13;;;17.87;;
7181;SDS011;3632;42.724;23.298;2023-02-23T01:42:35;29.30;;;18.97;;
7181;SDS011;3632;42.724;23.298;2023-02-23T01:47:52;56.60;;;32.73;;
7181;SDS011;3632;42.724;23.298;2023-02-23T01:50:23;51.07;;;28.13;;
7181;SDS011;3632;42.724;23.298;2023-02-23T01:52:52;36.80;;;21.60;;
7181;SDS011;3632;42.724;23.298;2023-02-23T01:55:20;33.03;;;20.50;;
7181;SDS011;3632;42.724;23.298;2023-02-23T01:57:50;35.30;;;21.63;;
7181;SDS011;3632;42.724;23.298;2023-02-23T02:00:21;47.37;;;26.20;;
7181;SDS011;3632;42.724;23.298;2023-02-23T02:02:50;66.37;;;34.13;;
7181;SDS011;3632;42.724;23.298;2023-02-23T02:05:18;76.57;;;39.10;;
7181;SDS011;3632;42.724;23.298;2023-02-23T02:07:47;79.63;;;38.07;;
7181;SDS011;3632;42.724;23.298;2023-02-23T02:10:22;62.43;;;31.77;;
7181;SDS011;3632;42.724;23.298;2023-02-23T02:13:10;35.90;;;20.70;;
7181;SDS011;3632;42.724;23.298;2023-02-23T02:15:57;32.13;;;20.57;;
7181;SDS011;3632;42.724;23.298;2023-02-23T02:18:48;33.60;;;19.70;;
7181;SDS011;3632;42.724;23.298;2023-02-23T02:21:45;32.37;;;20.07;;
7181;SDS011;3632;42.724;23.298;2023-02-23T02:24:41;41.63;;;24.03;;
7181;SDS011;3632;42.724;23.298;2023-02-23T02:27:40;38.17;;;20.73;;
7181;SDS011;3632;42.724;23.298;2023-02-23T02:30:42;28.03;;;17.67;;
7181;SDS011;3632;42.724;23.298;2023-02-23T02:36:48;26.60;;;16.90;;
7181;SDS011;3632;42.724;23.298;2023-02-23T02:39:29;34.70;;;19.57;;
7181;SDS011;3632;42.724;23.298;2023-02-23T02:42:11;37.23;;;20.53;;
7181;SDS011;3632;42.724;23.298;2023-02-23T02:44:48;32.90;;;18.47;;
7181;SDS011;3632;42.724;23.298;2023-02-23T02:47:21;26.03;;;16.73;;
7181;SDS011;3632;42.724;23.298;2023-02-23T02:49:55;24.67;;;16.93;;
7181;SDS011;3632;42.724;23.298;2023-02-23T02:52:30;24.80;;;15.90;;
7181;SDS011;3632;42.724;23.298;2023-02-23T02:55:02;22.60;;;14.80;;
7181;SDS011;3632;42.724;23.298;2023-02-23T02:57:36;26.93;;;16.50;;
7181;SDS011;3632;42.724;23.298;2023-02-23T03:00:05;25.30;;;15.77;;
7181;SDS011;3632;42.724;23.298;2023-02-23T03:02:50;25.07;;;16.73;;
7181;SDS011;3632;42.724;23.298;2023-02-23T03:05:35;28.40;;;17.07;;
7181;SDS011;3632;42.724;23.298;2023-02-23T03:08:27;29.37;;;17.60;;
7181;SDS011;3632;42.724;23.298;2023-02-23T03:11:20;25.47;;;15.77;;
7181;SDS011;3632;42.724;23.298;2023-02-23T03:14:11;27.23;;;17.40;;
7181;SDS011;3632;42.724;23.298;2023-02-23T03:17:04;25.47;;;16.93;;
7181;SDS011;3632;42.724;23.298;2023-02-23T03:19:58;27.20;;;17.17;;
7181;SDS011;3632;42.724;23.298;2023-02-23T03:22:50;27.37;;;16.63;;
7181;SDS011;3632;42.724;23.298;2023-02-23T03:25:44;31.33;;;17.40;;
7181;SDS011;3632;42.724;23.298;2023-02-23T03:28:35;26.67;;;16.93;;
7181;SDS011;3632;42.724;23.298;2023-02-23T03:31:25;30.97;;;17.57;;
7181;SDS011;3632;42.724;23.298;2023-02-23T03:34:18;27.63;;;16.83;;
7181;SDS011;3632;42.724;23.298;2023-02-23T03:37:08;29.10;;;16.13;;
7181;SDS011;3632;42.724;23.298;2023-02-23T03:40:00;25.03;;;15.53;;
7181;SDS011;3632;42.724;23.298;2023-02-23T03:42:51;26.70;;;15.60;;
7181;SDS011;3632;42.724;23.298;2023-02-23T03:45:38;24.17;;;15.37;;
7181;SDS011;3632;42.724;23.298;2023-02-23T03:48:23;28.00;;;16.47;;
7181;SDS011;3632;42.724;23.298;2023-02-23T03:51:10;21.73;;;12.63;;
7181;SDS011;3632;42.724;23.298;2023-02-23T03:53:58;19.33;;;13.33;;
7181;SDS011;3632;42.724;23.298;2023-02-23T03:56:49;18.17;;;10.87;;
7181;SDS011;3632;42.724;23.298;2023-02-23T03:59:37;16.10;;;11.63;;
7181;SDS011;3632;42.724;23.298;2023-02-23T04:02:29;16.70;;;11.10;;
7181;SDS011;3632;42.724;23.298;2023-02-23T04:05:17;19.70;;;12.87;;
7181;SDS011;3632;42.724;23.298;2023-02-23T04:08:05;24.50;;;16.10;;
7181;SDS011;3632;42.724;23.298;2023-02-23T04:10:53;28.03;;;17.80;;
7181;SDS011;3632;42.724;23.298;2023-02-23T04:13:43;29.63;;;18.90;;
7181;SDS011;3632;42.724;23.298;2023-02-23T04:16:14;31.97;;;19.60;;
7181;SDS011;3632;42.724;23.298;2023-02-23T04:18:40;32.27;;;19.77;;
7181;SDS011;3632;42.724;23.298;2023-02-23T04:21:07;32.80;;;21.53;;
7181;SDS011;3632;42.724;23.298;2023-02-23T04:23:33;34.73;;;21.47;;
7181;SDS011;3632;42.724;23.298;2023-02-23T04:26:04;47.87;;;24.57;;
7181;SDS011;3632;42.724;23.298;2023-02-23T04:28:31;38.63;;;22.83;;
7181;SDS011;3632;42.724;23.298;2023-02-23T04:30:58;36.40;;;23.13;;
7181;SDS011;3632;42.724;23.298;2023-02-23T04:33:27;44.10;;;23.80;;
7181;SDS011;3632;42.724;23.298;2023-02-23T04:35:54;52.27;;;25.03;;
7181;SDS011;3632;42.724;23.298;2023-02-23T04:38:21;43.70;;;24.13;;
7181;SDS011;3632;42.724;23.298;2023-02-23T04:40:49;36.30;;;20.80;;
7181;SDS011;3632;42.724;23.298;2023-02-23T04:43:16;42.67;;;23.07;;
7181;SDS011;3632;42.724;23.298;2023-02-23T04:45:43;48.07;;;24.20;;
7181;SDS011;3632;42.724;23.298;2023-02-23T04:48:10;40.17;;;23.50;;
7181;SDS011;3632;42.724;23.298;2023-02-23T04:50:38;32.97;;;21.90;;
7181;SDS011;3632;42.724;23.298;2023-02-23T04:53:05;35.37;;;21.63;;
7181;SDS011;3632;42.724;23.298;2023-02-23T04:55:32;35.33;;;21.13;;
7181;SDS011;3632;42.724;23.298;2023-02-23T04:58:00;36.30;;;21.63;;
7181;SDS011;3632;42.724;23.298;2023-02-23T05:00:27;35.97;;;22.03;;
7181;SDS011;3632;42.724;23.298;2023-02-23T05:02:55;38.90;;;23.43;;
7181;SDS011;3632;42.724;23.298;2023-02-23T05:05:22;34.30;;;23.17;;
7181;SDS011;3632;42.724;23.298;2023-02-23T05:07:50;36.73;;;22.37;;
7181;SDS011;3632;42.724;23.298;2023-02-23T05:10:18;39.50;;;23.97;;
7181;SDS011;3632;42.724;23.298;2023-02-23T05:12:45;37.93;;;22.33;;
7181;SDS011;3632;42.724;23.298;2023-02-23T05:15:12;34.57;;;22.73;;
7181;SDS011;3632;42.724;23.298;2023-02-23T05:17:39;33.83;;;21.87;;
7181;SDS011;3632;42.724;23.298;2023-02-23T05:20:06;36.67;;;22.60;;
7181;SDS011;3632;42.724;23.298;2023-02-23T05:22:34;32.03;;;21.77;;
7181;SDS011;3632;42.724;23.298;2023-02-23T05:25:03;37.20;;;20.90;;
7181;SDS011;3632;42.724;23.298;2023-02-23T05:27:30;34.17;;;20.87;;
7181;SDS011;3632;42.724;23.298;2023-02-23T05:29:58;35.37;;;21.10;;
7181;SDS011;3632;42.724;23.298;2023-02-23T05:32:25;42.90;;;25.70;;
7181;SDS011;3632;42.724;23.298;2023-02-23T05:34:52;51.03;;;26.93;;
7181;SDS011;3632;42.724;23.298;2023-02-23T05:37:19;53.37;;;33.43;;
7181;SDS011;3632;42.724;23.298;2023-02-23T05:39:46;38.13;;;24.70;;
7181;SDS011;3632;42.724;23.298;2023-02-23T05:42:14;41.97;;;20.33;;
7181;SDS011;3632;42.724;23.298;2023-02-23T05:44:41;37.70;;;19.90;;
7181;SDS011;3632;42.724;23.298;2023-02-23T05:47:08;34.93;;;20.03;;
7181;SDS011;3632;42.724;23.298;2023-02-23T05:49:34;33.67;;;20.40;;
7181;SDS011;3632;42.724;23.298;2023-02-23T05:52:01;37.03;;;20.57;;
7181;SDS011;3632;42.724;23.298;2023-02-23T05:54:28;35.93;;;21.37;;
7181;SDS011;3632;42.724;23.298;2023-02-23T05:56:55;37.77;;;20.77;;
7181;SDS011;3632;42.724;23.298;2023-02-23T05:59:23;35.80;;;24.93;;
7181;SDS011;3632;42.724;23.298;2023-02-23T06:01:51;47.13;;;29.77;;
7181;SDS011;3632;42.724;23.298;2023-02-23T06:04:17;40.80;;;26.60;;
7181;SDS011;3632;42.724;23.298;2023-02-23T06:06:47;46.20;;;26.07;;
7181;SDS011;3632;42.724;23.298;2023-02-23T06:09:14;46.43;;;28.73;;
7181;SDS011;3632;42.724;23.298;2023-02-23T06:11:41;48.00;;;30.37;;
7181;SDS011;3632;42.724;23.298;2023-02-23T06:14:08;47.47;;;28.60;;
7181;SDS011;3632;42.724;23.298;2023-02-23T06:16:36;47.13;;;29.50;;
7181;SDS011;3632;42.724;23.298;2023-02-23T06:19:03;50.80;;;31.70;;
7181;SDS011;3632;42.724;23.298;2023-02-23T06:21:30;48.70;;;32.33;;
7181;SDS011;3632;42.724;23.298;2023-02-23T06:23:57;45.77;;;30.10;;
7181;SDS011;3632;42.724;23.298;2023-02-23T06:26:25;47.47;;;29.57;;
7181;SDS011;3632;42.724;23.298;2023-02-23T06:28:51;41.40;;;23.47;;
7181;SDS011;3632;42.724;23.298;2023-02-23T06:31:18;31.40;;;21.30;;
7181;SDS011;3632;42.724;23.298;2023-02-23T06:33:46;32.03;;;19.90;;
7181;SDS011;3632;42.724;23.298;2023-02-23T06:36:13;31.17;;;20.03;;
7181;SDS011;3632;42.724;23.298;2023-02-23T06:38:40;22.73;;;16.77;;
7181;SDS011;3632;42.724;23.298;2023-02-23T06:41:09;24.97;;;15.23;;
7181;SDS011;3632;42.724;23.298;2023-02-23T06:43:36;20.23;;;14.90;;
7181;SDS011;3632;42.724;23.298;2023-02-23T06:46:04;23.87;;;15.73;;
7181;SDS011;3632;42.724;23.298;2023-02-23T06:48:31;22.90;;;15.27;;
7181;SDS011;3632;42.724;23.298;2023-02-23T06:51:00;23.63;;;15.77;;
7181;SDS011;3632;42.724;23.298;2023-02-23T06:53:27;21.67;;;14.40;;
7181;SDS011;3632;42.724;23.298;2023-02-23T06:55:55;20.60;;;14.30;;
7181;SDS011;3632;42.724;23.298;2023-02-23T06:58:22;22.23;;;13.60;;
7181;SDS011;3632;42.724;23.298;2023-02-23T07:00:49;18.60;;;14.23;;
7181;SDS011;3632;42.724;23.298;2023-02-23T07:03:16;24.37;;;15.87;;
7181;SDS011;3632;42.724;23.298;2023-02-23T07:05:43;23.87;;;16.13;;
7181;SDS011;3632;42.724;23.298;2023-02-23T07:08:11;28.13;;;19.10;;
7181;SDS011;3632;42.724;23.298;2023-02-23T07:10:38;23.50;;;16.90;;
7181;SDS011;3632;42.724;23.298;2023-02-23T07:13:05;31.67;;;18.10;;
7181;SDS011;3632;42.724;23.298;2023-02-23T07:15:34;21.60;;;14.37;;
7181;SDS011;3632;42.724;23.298;2023-02-23T07:18:02;21.83;;;15.53;;
7181;SDS011;3632;42.724;23.298;2023-02-23T07:20:29;19.70;;;14.90;;
7181;SDS011;3632;42.724;23.298;2023-02-23T07:22:57;20.03;;;15.53;;
7181;SDS011;3632;42.724;23.298;2023-02-23T07:25:26;23.83;;;15.70;;
7181;SDS011;3632;42.724;23.298;2023-02-23T07:27:53;21.63;;;16.23;;
7181;SDS011;3632;42.724;23.298;2023-02-23T07:30:20;21.97;;;15.90;;
7181;SDS011;3632;42.724;23.298;2023-02-23T07:32:48;23.67;;;15.17;;
7181;SDS011;3632;42.724;23.298;2023-02-23T07:35:15;21.53;;;15.80;;
7181;SDS011;3632;42.724;23.298;2023-02-23T07:37:42;19.47;;;14.90;;
7181;SDS011;3632;42.724;23.298;2023-02-23T07:40:10;21.73;;;14.60;;
7181;SDS011;3632;42.724;23.298;2023-02-23T07:42:39;24.80;;;16.47;;
7181;SDS011;3632;42.724;23.298;2023-02-23T07:45:06;22.63;;;16.03;;
7181;SDS011;3632;42.724;23.298;2023-02-23T07:47:34;28.33;;;18.83;;
7181;SDS011;3632;42.724;23.298;2023-02-23T07:50:01;26.20;;;19.03;;
7181;SDS011;3632;42.724;23.298;2023-02-23T07:52:32;25.30;;;17.60;;
7181;SDS011;3632;42.724;23.298;2023-02-23T07:54:58;29.20;;;17.43;;
7181;SDS011;3632;42.724;23.298;2023-02-23T07:57:25;23.23;;;17.27;;
7181;SDS011;3632;42.724;23.298;2023-02-23T07:59:53;22.93;;;17.00;;
7181;SDS011;3632;42.724;23.298;2023-02-23T08:02:20;26.77;;;17.57;;
7181;SDS011;3632;42.724;23.298;2023-02-23T08:04:47;21.10;;;16.63;;
7181;SDS011;3632;42.724;23.298;2023-02-23T08:07:14;26.73;;;17.20;;
7181;SDS011;3632;42.724;23.298;2023-02-23T08:09:41;24.10;;;17.43;;
7181;SDS011;3632;42.724;23.298;2023-02-23T08:12:07;26.87;;;19.70;;
7181;SDS011;3632;42.724;23.298;2023-02-23T08:14:34;26.83;;;17.93;;
7181;SDS011;3632;42.724;23.298;2023-02-23T08:17:02;27.30;;;17.30;;
7181;SDS011;3632;42.724;23.298;2023-02-23T08:19:29;22.97;;;15.10;;
7181;SDS011;3632;42.724;23.298;2023-02-23T08:21:56;27.50;;;15.50;;
7181;SDS011;3632;42.724;23.298;2023-02-23T08:24:23;20.30;;;14.73;;
7181;SDS011;3632;42.724;23.298;2023-02-23T08:26:53;25.40;;;14.90;;
7181;SDS011;3632;42.724;23.298;2023-02-23T08:29:20;23.40;;;15.80;;
7181;SDS011;3632;42.724;23.298;2023-02-23T08:31:46;23.67;;;16.23;;
7181;SDS011;3632;42.724;23.298;2023-02-23T08:34:16;25.67;;;15.50;;
7181;SDS011;3632;42.724;23.298;2023-02-23T08:36:44;21.53;;;14.33;;
7181;SDS011;3632;42.724;23.298;2023-02-23T08:39:11;20.97;;;14.00;;
7181;SDS011;3632;42.724;23.298;2023-02-23T08:41:38;21.83;;;14.13;;
7181;SDS011;3632;42.724;23.298;2023-02-23T08:44:06;21.10;;;13.70;;
7181;SDS011;3632;42.724;23.298;2023-02-23T08:46:33;21.87;;;14.13;;
7181;SDS011;3632;42.724;23.298;2023-02-23T08:49:00;34.57;;;21.43;;
7181;SDS011;3632;42.724;23.298;2023-02-23T08:51:28;22.47;;;14.70;;
7181;SDS011;3632;42.724;23.298;2023-02-23T08:53:55;24.33;;;14.60;;
7181;SDS011;3632;42.724;23.298;2023-02-23T08:56:22;19.57;;;13.83;;
7181;SDS011;3632;42.724;23.298;2023-02-23T08:58:51;23.23;;;16.27;;
7181;SDS011;3632;42.724;23.298;2023-02-23T09:01:18;23.63;;;14.17;;
7181;SDS011;3632;42.724;23.298;2023-02-23T09:03:47;17.37;;;12.93;;
7181;SDS011;3632;42.724;23.298;2023-02-23T09:06:16;16.83;;;12.77;;
7181;SDS011;3632;42.724;23.298;2023-02-23T09:08:46;21.00;;;12.70;;
7181;SDS011;3632;42.724;23.298;2023-02-23T09:11:13;22.87;;;12.83;;
7181;SDS011;3632;42.724;23.298;2023-02-23T09:13:40;16.93;;;11.97;;
7181;SDS011;3632;42.724;23.298;2023-02-23T09:16:08;21.93;;;12.83;;
7181;SDS011;3632;42.724;23.298;2023-02-23T09:18:35;18.67;;;11.97;;
7181;SDS011;3632;42.724;23.298;2023-02-23T09:21:02;16.70;;;12.90;;
7181;SDS011;3632;42.724;23.298;2023-02-23T09:23:32;18.60;;;12.73;;
7181;SDS011;3632;42.724;23.298;2023-02-23T09:26:02;18.07;;;13.33;;
7181;SDS011;3632;42.724;23.298;2023-02-23T09:28:30;19.80;;;12.50;;
7181;SDS011;3632;42.724;23.298;2023-02-23T09:30:58;16.70;;;11.33;;
7181;SDS011;3632;42.724;23.298;2023-02-23T09:33:30;16.43;;;10.17;;
7181;SDS011;3632;42.724;23.298;2023-02-23T09:35:57;17.90;;;14.27;;
7181;SDS011;3632;42.724;23.298;2023-02-23T09:38:24;19.97;;;13.13;;
7181;SDS011;3632;42.724;23.298;2023-02-23T09:40:52;13.73;;;11.40;;
7181;SDS011;3632;42.724;23.298;2023-02-23T09:43:24;14.67;;;10.07;;
7181;SDS011;3632;42.724;23.298;2023-02-23T09:45:58;17.43;;;10.90;;
7181;SDS011;3632;42.724;23.298;2023-02-23T09:48:33;15.27;;;12.07;;
7181;SDS011;3632;42.724;23.298;2023-02-23T09:51:00;19.03;;;12.83;;
7181;SDS011;3632;42.724;23.298;2023-02-23T09:53:36;16.60;;;12.13;;
7181;SDS011;3632;42.724;23.298;2023-02-23T09:56:07;13.53;;;11.93;;
7181;SDS011;3632;42.724;23.298;2023-02-23T09:58:40;17.47;;;11.87;;
7181;SDS011;3632;42.724;23.298;2023-02-23T10:01:16;15.63;;;10.97;;
7181;SDS011;3632;42.724;23.298;2023-02-23T10:04:17;16.30;;;10.93;;
7181;SDS011;3632;42.724;23.298;2023-02-23T10:06:49;13.00;;;11.43;;
7181;SDS011;3632;42.724;23.298;2023-02-23T10:09:25;15.83;;;12.87;;
7181;SDS011;3632;42.724;23.298;2023-02-23T10:12:05;17.93;;;13.43;;
7181;SDS011;3632;42.724;23.298;2023-02-23T10:14:46;14.50;;;11.17;;
7181;SDS011;3632;42.724;23.298;2023-02-23T10:17:29;12.70;;;8.87;;
7181;SDS011;3632;42.724;23.298;2023-02-23T10:20:05;10.87;;;7.30;;
7181;SDS011;3632;42.724;23.298;2023-02-23T10:22:44;12.07;;;7.67;;
7181;SDS011;3632;42.724;23.298;2023-02-23T10:25:14;12.20;;;7.93;;
7181;SDS011;3632;42.724;23.298;2023-02-23T10:27:46;14.10;;;7.50;;
7181;SDS011;3632;42.724;23.298;2023-02-23T10:30:17;11.50;;;7.93;;
7181;SDS011;3632;42.724;23.298;2023-02-23T10:32:48;9.53;;;6.93;;
7181;SDS011;3632;42.724;23.298;2023-02-23T10:35:22;12.53;;;7.20;;
7181;SDS011;3632;42.724;23.298;2023-02-23T10:37:56;16.37;;;12.83;;
7181;SDS011;3632;42.724;23.298;2023-02-23T10:40:27;13.50;;;9.70;;
7181;SDS011;3632;42.724;23.298;2023-02-23T10:42:57;15.23;;;12.90;;
7181;SDS011;3632;42.724;23.298;2023-02-23T10:45:29;10.40;;;8.40;;
7181;SDS011;3632;42.724;23.298;2023-02-23T10:48:12;13.73;;;10.23;;
7181;SDS011;3632;42.724;23.298;2023-02-23T10:50:43;16.40;;;10.07;;
7181;SDS011;3632;42.724;23.298;2023-02-23T10:53:13;15.30;;;10.67;;
7181;SDS011;3632;42.724;23.298;2023-02-23T10:55:44;13.20;;;8.40;;
7181;SDS011;3632;42.724;23.298;2023-02-23T10:58:13;13.63;;;9.63;;
7181;SDS011;3632;42.724;23.298;2023-02-23T11:00:51;10.83;;;8.73;;
7181;SDS011;3632;42.724;23.298;2023-02-23T11:03:22;13.87;;;8.80;;
7181;SDS011;3632;42.724;23.298;2023-02-23T11:05:53;13.03;;;8.70;;
7181;SDS011;3632;42.724;23.298;2023-02-23T11:08:21;11.27;;;8.80;;
7181;SDS011;3632;42.724;23.298;2023-02-23T11:10:57;12.53;;;9.87;;
7181;SDS011;3632;42.724;23.298;2023-02-23T11:13:26;11.47;;;8.50;;
7181;SDS011;3632;42.724;23.298;2023-02-23T11:16:00;13.47;;;8.70;;
7181;SDS011;3632;42.724;23.298;2023-02-23T11:18:29;14.23;;;8.93;;
7181;SDS011;3632;42.724;23.298;2023-02-23T11:20:57;10.43;;;7.67;;
7181;SDS011;3632;42.724;23.298;2023-02-23T11:23:24;12.07;;;8.73;;
7181;SDS011;3632;42.724;23.298;2023-02-23T11:25:55;12.60;;;8.13;;
7181;SDS011;3632;42.724;23.298;2023-02-23T11:28:26;12.53;;;7.27;;
7181;SDS011;3632;42.724;23.298;2023-02-23T11:30:56;10.30;;;8.70;;
7181;SDS011;3632;42.724;23.298;2023-02-23T11:33:29;10.33;;;6.80;;
7181;SDS011;3632;42.724;23.298;2023-02-23T11:36:11;14.27;;;6.90;;
7181;SDS011;3632;42.724;23.298;2023-02-23T11:38:40;9.23;;;6.53;;
7181;SDS011;3632;42.724;23.298;2023-02-23T11:41:16;8.57;;;6.90;;
7181;SDS011;3632;42.724;23.298;2023-02-23T11:43:46;13.50;;;6.40;;
7181;SDS011;3632;42.724;23.298;2023-02-23T11:46:15;7.83;;;5.90;;
7181;SDS011;3632;42.724;23.298;2023-02-23T11:48:46;9.77;;;5.37;;
7181;SDS011;3632;42.724;23.298;2023-02-23T11:51:21;12.23;;;6.07;;
7181;SDS011;3632;42.724;23.298;2023-02-23T11:53:50;16.50;;;6.03;;
7181;SDS011;3632;42.724;23.298;2023-02-23T11:56:18;9.70;;;6.57;;
7181;SDS011;3632;42.724;23.298;2023-02-23T11:58:48;8.83;;;7.60;;
7181;SDS011;3632;42.724;23.298;2023-02-23T12:01:19;14.70;;;7.03;;
7181;SDS011;3632;42.724;23.298;2023-02-23T12:03:50;9.30;;;6.00;;
7181;SDS011;3632;42.724;23.298;2023-02-23T12:06:28;10.57;;;5.90;;
7181;SDS011;3632;42.724;23.298;2023-02-23T12:08:57;8.00;;;5.57;;
7181;SDS011;3632;42.724;23.298;2023-02-23T12:11:30;7.87;;;5.57;;
7181;SDS011;3632;42.724;23.298;2023-02-23T12:14:02;7.43;;;5.63;;
7181;SDS011;3632;42.724;23.298;2023-02-23T12:16:37;7.50;;;6.17;;
7181;SDS011;3632;42.724;23.298;2023-02-23T12:19:16;7.93;;;6.23;;
7181;SDS011;3632;42.724;23.298;2023-02-23T12:21:51;10.50;;;5.43;;
7181;SDS011;3632;42.724;23.298;2023-02-23T12:24:24;5.80;;;5.20;;
7181;SDS011;3632;42.724;23.298;2023-02-23T12:26:58;11.30;;;5.20;;
7181;SDS011;3632;42.724;23.298;2023-02-23T12:29:31;8.73;;;6.70;;
7181;SDS011;3632;42.724;23.298;2023-02-23T12:32:03;9.63;;;6.30;;
7181;SDS011;3632;42.724;23.298;2023-02-23T12:34:39;9.37;;;6.87;;
7181;SDS011;3632;42.724;23.298;2023-02-23T12:37:15;9.53;;;7.40;;
7181;SDS011;3632;42.724;23.298;2023-02-23T12:39:55;8.30;;;5.80;;
7181;SDS011;3632;42.724;23.298;2023-02-23T12:42:29;7.83;;;6.20;;
7181;SDS011;3632;42.724;23.298;2023-02-23T12:45:05;8.00;;;5.77;;
7181;SDS011;3632;42.724;23.298;2023-02-23T12:47:40;8.93;;;5.13;;
7181;SDS011;3632;42.724;23.298;2023-02-23T12:50:16;7.03;;;5.03;;
7181;SDS011;3632;42.724;23.298;2023-02-23T12:52:50;6.70;;;5.20;;
7181;SDS011;3632;42.724;23.298;2023-02-23T12:55:25;9.70;;;5.97;;
7181;SDS011;3632;42.724;23.298;2023-02-23T12:57:59;9.63;;;5.77;;
7181;SDS011;3632;42.724;23.298;2023-02-23T13:00:41;7.13;;;5.00;;
7181;SDS011;3632;42.724;23.298;2023-02-23T13:03:29;8.97;;;5.30;;
7181;SDS011;3632;42.724;23.298;2023-02-23T13:06:15;7.53;;;5.80;;
7181;SDS011;3632;42.724;23.298;2023-02-23T13:08:55;9.27;;;6.47;;
7181;SDS011;3632;42.724;23.298;2023-02-23T13:11:38;8.23;;;4.90;;
7181;SDS011;3632;42.724;23.298;2023-02-23T13:14:19;10.30;;;6.27;;
7181;SDS011;3632;42.724;23.298;2023-02-23T13:16:55;9.03;;;6.57;;
7181;SDS011;3632;42.724;23.298;2023-02-23T13:19:28;7.70;;;6.00;;
7181;SDS011;3632;42.724;23.298;2023-02-23T13:22:10;7.80;;;4.97;;
7181;SDS011;3632;42.724;23.298;2023-02-23T13:24:52;8.67;;;5.13;;
7181;SDS011;3632;42.724;23.298;2023-02-23T13:27:24;10.43;;;7.17;;
7181;SDS011;3632;42.724;23.298;2023-02-23T13:29:56;11.33;;;6.47;;
7181;SDS011;3632;42.724;23.298;2023-02-23T13:32:24;11.03;;;8.87;;
7181;SDS011;3632;42.724;23.298;2023-02-23T13:34:56;11.17;;;5.83;;
7181;SDS011;3632;42.724;23.298;2023-02-23T13:37:28;8.37;;;5.60;;
7181;SDS011;3632;42.724;23.298;2023-02-23T13:40:01;9.07;;;6.83;;
7181;SDS011;3632;42.724;23.298;2023-02-23T13:42:45;10.03;;;7.63;;
7181;SDS011;3632;42.724;23.298;2023-02-23T13:45:22;12.23;;;6.97;;
7181;SDS011;3632;42.724;23.298;2023-02-23T13:47:57;13.30;;;8.10;;
7181;SDS011;3632;42.724;23.298;2023-02-23T13:50:34;11.37;;;5.57;;
7181;SDS011;3632;42.724;23.298;2023-02-23T13:53:24;12.80;;;7.50;;
7181;SDS011;3632;42.724;23.298;2023-02-23T13:55:57;13.57;;;6.27;;
7181;SDS011;3632;42.724;23.298;2023-02-23T13:58:27;11.77;;;5.63;;
7181;SDS011;3632;42.724;23.298;2023-02-23T14:01:03;10.70;;;7.33;;
7181;SDS011;3632;42.724;23.298;2023-02-23T14:03:35;9.93;;;5.20;;
7181;SDS011;3632;42.724;23.298;2023-02-23T14:06:10;8.70;;;5.73;;
7181;SDS011;3632;42.724;23.298;2023-02-23T14:08:40;9.73;;;6.33;;
7181;SDS011;3632;42.724;23.298;2023-02-23T14:11:11;10.17;;;7.50;;
7181;SDS011;3632;42.724;23.298;2023-02-23T14:13:58;11.67;;;6.57;;
7181;SDS011;3632;42.724;23.298;2023-02-23T14:16:27;11.63;;;6.90;;
7181;SDS011;3632;42.724;23.298;2023-02-23T14:19:03;10.47;;;6.30;;
7181;SDS011;3632;42.724;23.298;2023-02-23T14:21:40;8.10;;;5.30;;
7181;SDS011;3632;42.724;23.298;2023-02-23T14:24:15;10.97;;;5.03;;
7181;SDS011;3632;42.724;23.298;2023-02-23T14:32:49;18.47;;;8.30;;
7181;SDS011;3632;42.724;23.298;2023-02-23T14:35:35;13.00;;;7.20;;
7181;SDS011;3632;42.724;23.298;2023-02-23T14:41:02;17.70;;;8.97;;
7181;SDS011;3632;42.724;23.298;2023-02-23T14:43:43;14.70;;;8.07;;
7181;SDS011;3632;42.724;23.298;2023-02-23T14:46:16;14.60;;;7.60;;
7181;SDS011;3632;42.724;23.298;2023-02-23T14:48:54;11.57;;;7.90;;
7181;SDS011;3632;42.724;23.298;2023-02-23T14:51:24;16.37;;;9.67;;
7181;SDS011;3632;42.724;23.298;2023-02-23T14:53:59;12.23;;;8.63;;
7181;SDS011;3632;42.724;23.298;2023-02-23T14:56:28;15.53;;;7.83;;
7181;SDS011;3632;42.724;23.298;2023-02-23T14:58:57;17.77;;;10.53;;
7181;SDS011;3632;42.724;23.298;2023-02-23T15:01:31;15.47;;;8.37;;
7181;SDS011;3632;42.724;23.298;2023-02-23T15:04:10;12.47;;;8.40;;
7181;SDS011;3632;42.724;23.298;2023-02-23T15:06:38;15.20;;;11.47;;
7181;SDS011;3632;42.724;23.298;2023-02-23T15:09:07;16.47;;;8.60;;
7181;SDS011;3632;42.724;23.298;2023-02-23T15:11:48;15.23;;;7.30;;
7181;SDS011;3632;42.724;23.298;2023-02-23T15:14:18;11.93;;;7.10;;
7181;SDS011;3632;42.724;23.298;2023-02-23T15:16:45;15.50;;;6.83;;
7181;SDS011;3632;42.724;23.298;2023-02-23T15:19:16;16.50;;;6.47;;
7181;SDS011;3632;42.724;23.298;2023-02-23T15:21:59;14.53;;;6.80;;
7181;SDS011;3632;42.724;23.298;2023-02-23T15:24:30;14.17;;;6.40;;
7181;SDS011;3632;42.724;23.298;2023-02-23T15:27:00;11.20;;;6.37;;